createdAt,value
2022-09-06T00:02:11.210Z,27.00
2022-09-06T00:04:41.930Z,27.00
2022-09-06T00:07:12.857Z,27.00
2022-09-06T00:09:43.619Z,27.00
2022-09-06T00:12:15.976Z,27.10
2022-09-06T00:14:47.783Z,27.00
2022-09-06T00:17:18.528Z,26.90
2022-09-06T00:19:49.271Z,26.80
2022-09-06T00:22:20.043Z,26.80
2022-09-06T00:24:50.788Z,26.80
2022-09-06T00:27:23.209Z,26.80
2022-09-06T00:29:53.979Z,26.60
2022-09-06T00:32:24.682Z,26.70
2022-09-06T00:34:55.451Z,26.60
2022-09-06T00:37:26.186Z,26.40
2022-09-06T00:39:56.977Z,26.40
2022-09-06T00:42:29.359Z,26.30
2022-09-06T00:45:00.317Z,26.20
2022-09-06T00:47:31.665Z,26.20
2022-09-06T00:50:03.960Z,26.20
2022-09-06T00:52:36.882Z,26.30
2022-09-06T00:55:08.177Z,26.30
2022-09-06T00:57:40.589Z,26.30
2022-09-06T01:00:12.376Z,26.30
2022-09-06T01:02:43.229Z,26.20
2022-09-06T01:05:15.221Z,26.20
2022-09-06T01:08:01.189Z,26.00
2022-09-06T01:10:55.564Z,25.90
2022-09-06T01:13:36.718Z,25.80
2022-09-06T01:16:16.388Z,25.70
2022-09-06T01:19:01.080Z,25.70
2022-09-06T01:21:41.837Z,25.60
2022-09-06T01:24:40.972Z,25.60
2022-09-06T01:28:00.558Z,25.60
2022-09-06T01:30:33.217Z,25.50
2022-09-06T01:33:09.663Z,25.30
2022-09-06T01:35:43.810Z,25.30
2022-09-06T01:38:14.679Z,25.20
2022-09-06T01:40:45.436Z,25.10
2022-09-06T01:43:28.855Z,25.00
2022-09-06T01:46:08.044Z,24.90
2022-09-06T01:48:52.821Z,24.80
2022-09-06T01:51:33.751Z,24.80
2022-09-06T01:54:27.247Z,24.70
2022-09-06T01:57:12.420Z,24.60
2022-09-06T01:59:58.051Z,24.50
2022-09-06T02:02:36.073Z,24.30
2022-09-06T02:05:11.696Z,24.20
2022-09-06T02:07:44.988Z,24.20
2022-09-06T02:10:21.304Z,24.10
2022-09-06T02:12:56.207Z,24.00
2022-09-06T02:15:32.425Z,24.00
2022-09-06T02:18:07.345Z,23.90
2022-09-06T02:20:44.039Z,23.80
2022-09-06T02:23:15.337Z,23.70
2022-09-06T02:25:52.963Z,23.70
2022-09-06T02:28:24.366Z,23.60
2022-09-06T02:31:01.213Z,23.50
2022-09-06T02:33:34.468Z,23.40
2022-09-06T02:36:09.074Z,23.40
2022-09-06T02:38:42.671Z,23.30
2022-09-06T02:41:14.436Z,23.20
2022-09-06T02:43:45.880Z,23.10
2022-09-06T02:46:19.638Z,23.10
2022-09-06T02:48:50.455Z,23.10
2022-09-06T02:51:22.501Z,23.00
2022-09-06T02:53:53.268Z,22.90
2022-09-06T02:56:24.003Z,22.80
2022-09-06T02:58:54.718Z,22.80
2022-09-06T03:01:27.225Z,22.70
2022-09-06T03:03:58.196Z,22.60
2022-09-06T03:06:28.950Z,22.50
2022-09-06T03:09:00.931Z,22.50
2022-09-06T03:11:31.971Z,22.40
2022-09-06T03:14:02.728Z,22.30
2022-09-06T03:16:35.147Z,22.30
2022-09-06T03:19:06.000Z,22.20
2022-09-06T03:21:36.845Z,22.20
2022-09-06T03:24:07.919Z,22.20
2022-09-06T03:26:38.709Z,22.10
2022-09-06T03:29:10.463Z,22.10
2022-09-06T03:31:42.804Z,22.00
2022-09-06T03:34:13.494Z,21.90
2022-09-06T03:36:44.196Z,21.90
2022-09-06T03:39:14.928Z,21.80
2022-09-06T03:41:45.650Z,21.70
2022-09-06T03:44:16.347Z,21.70
2022-09-06T03:46:48.745Z,21.60
2022-09-06T03:49:19.560Z,21.60
2022-09-06T03:51:50.321Z,21.50
2022-09-06T03:54:21.065Z,21.50
2022-09-06T03:56:51.771Z,21.40
2022-09-06T03:59:22.503Z,21.40
2022-09-06T04:01:55.010Z,21.40
2022-09-06T04:04:25.751Z,21.30
2022-09-06T04:06:56.552Z,21.30
2022-09-06T04:09:27.318Z,21.20
2022-09-06T04:11:58.067Z,21.20
2022-09-06T04:14:28.830Z,21.10
2022-09-06T04:17:01.253Z,21.10
2022-09-06T04:19:31.997Z,21.00
2022-09-06T04:22:02.722Z,21.00
2022-09-06T04:24:33.448Z,20.90
2022-09-06T04:27:04.207Z,20.80
2022-09-06T04:29:34.909Z,20.80
2022-09-06T04:32:07.566Z,20.70
2022-09-06T04:34:38.344Z,20.70
2022-09-06T04:37:10.082Z,20.70
2022-09-06T04:39:40.859Z,20.60
2022-09-06T04:42:11.761Z,20.60
2022-09-06T04:44:42.544Z,20.50
2022-09-06T04:47:18.987Z,20.50
2022-09-06T04:49:50.631Z,20.50
2022-09-06T04:52:23.092Z,20.50
2022-09-06T04:54:55.763Z,20.40
2022-09-06T04:57:26.466Z,20.40
2022-09-06T04:59:57.251Z,20.40
2022-09-06T05:02:29.677Z,20.40
2022-09-06T05:05:00.419Z,20.30
2022-09-06T05:07:31.179Z,20.30
2022-09-06T05:10:01.909Z,20.20
2022-09-06T05:12:32.628Z,20.20
2022-09-06T05:15:03.351Z,20.20
2022-09-06T05:17:36.124Z,20.10
2022-09-06T05:20:07.422Z,20.00
2022-09-06T05:22:38.409Z,20.00
2022-09-06T05:25:09.792Z,19.90
2022-09-06T05:27:40.540Z,19.90
2022-09-06T05:30:12.504Z,19.90
2022-09-06T05:32:44.879Z,19.80
2022-09-06T05:35:15.680Z,19.70
2022-09-06T05:37:46.401Z,19.70
2022-09-06T05:40:17.209Z,19.70
2022-09-06T05:42:48.956Z,19.70
2022-09-06T05:45:19.739Z,19.70
2022-09-06T05:47:53.240Z,19.60
2022-09-06T05:50:23.973Z,19.50
2022-09-06T05:52:56.854Z,19.50
2022-09-06T05:55:27.574Z,19.40
2022-09-06T05:57:58.289Z,19.40
2022-09-06T06:00:29.088Z,19.30
2022-09-06T06:03:01.526Z,19.30
2022-09-06T06:05:32.272Z,19.30
2022-09-06T06:08:03.034Z,19.20
2022-09-06T06:10:37.980Z,19.20
2022-09-06T06:13:09.384Z,19.10
2022-09-06T06:15:40.095Z,19.00
2022-09-06T06:18:12.466Z,19.00
2022-09-06T06:20:43.330Z,18.90
2022-09-06T06:23:14.077Z,18.90
2022-09-06T06:25:44.785Z,18.80
2022-09-06T06:28:15.492Z,18.80
2022-09-06T06:30:46.207Z,18.80
2022-09-06T06:33:18.558Z,18.80
2022-09-06T06:36:03.525Z,18.80
2022-09-06T06:38:35.157Z,18.70
2022-09-06T06:41:07.138Z,18.70
2022-09-06T06:43:38.770Z,18.60
2022-09-06T06:46:10.965Z,18.50
2022-09-06T06:48:44.689Z,18.40
2022-09-06T06:51:17.552Z,18.40
2022-09-06T06:53:49.216Z,18.40
2022-09-06T06:56:21.636Z,18.30
2022-09-06T06:58:53.582Z,18.30
2022-09-06T07:01:25.243Z,18.20
2022-09-06T07:03:57.929Z,18.20
2022-09-06T07:09:22.130Z,18.10
2022-09-06T07:11:53.209Z,18.00
2022-09-06T07:14:23.916Z,18.00
2022-09-06T07:16:59.056Z,17.90
2022-09-06T07:22:22.364Z,17.80
2022-09-06T07:24:53.101Z,17.70
2022-09-06T07:30:16.192Z,17.70
2022-09-06T07:32:46.914Z,17.60
2022-09-06T07:35:21.190Z,17.60
2022-09-06T07:37:58.751Z,17.50
2022-09-06T07:40:31.587Z,17.50
2022-09-06T07:43:02.650Z,17.40
2022-09-06T07:45:33.683Z,17.40
2022-09-06T07:48:04.495Z,17.40
2022-09-06T07:53:22.981Z,17.30
2022-09-06T07:55:59.864Z,17.20
2022-09-06T07:58:31.497Z,17.20
2022-09-06T08:01:19.460Z,17.20
2022-09-06T08:03:50.636Z,17.20
2022-09-06T08:06:23.871Z,17.10
2022-09-06T08:11:33.747Z,17.10
2022-09-06T08:14:06.082Z,16.90
2022-09-06T08:16:38.456Z,16.90
2022-09-06T08:19:11.741Z,16.80
2022-09-06T08:21:44.792Z,16.70
2022-09-06T08:24:15.480Z,16.70
2022-09-06T08:26:46.213Z,16.70
2022-09-06T08:29:17.299Z,16.70
2022-09-06T08:31:48.462Z,16.60
2022-09-06T08:34:19.259Z,16.60
2022-09-06T08:36:51.604Z,16.50
2022-09-06T08:39:22.408Z,16.60
2022-09-06T08:41:57.948Z,16.50
2022-09-06T08:47:24.304Z,16.50
2022-09-06T08:49:58.045Z,16.40
2022-09-06T08:53:16.141Z,16.40
2022-09-06T08:55:53.705Z,16.30
2022-09-06T08:58:54.981Z,16.20
2022-09-06T09:01:44.589Z,16.20
2022-09-06T09:04:23.037Z,16.10
2022-09-06T09:06:58.915Z,16.00
2022-09-06T09:09:36.943Z,15.90
2022-09-06T09:12:09.824Z,15.90
2022-09-06T09:14:44.179Z,15.90
2022-09-06T09:17:21.091Z,15.80
2022-09-06T09:19:52.059Z,15.70
2022-09-06T09:22:23.248Z,15.70
2022-09-06T09:24:56.536Z,15.60
2022-09-06T09:27:30.191Z,15.60
2022-09-06T09:32:54.073Z,15.50
2022-09-06T09:35:31.876Z,15.50
2022-09-06T09:38:11.677Z,15.50
2022-09-06T09:40:52.571Z,15.40
2022-09-06T09:43:26.013Z,15.40
2022-09-06T09:46:30.660Z,15.30
2022-09-06T09:49:07.652Z,15.20
2022-09-06T09:51:40.071Z,15.30
2022-09-06T09:54:12.483Z,15.30
2022-09-06T09:56:52.506Z,15.20
2022-09-06T09:59:27.109Z,15.20
2022-09-06T10:02:01.853Z,15.10
2022-09-06T10:07:18.432Z,15.20
2022-09-06T10:09:51.074Z,15.20
2022-09-06T10:12:32.490Z,15.20
2022-09-06T10:15:07.025Z,15.00
2022-09-06T10:17:39.332Z,15.10
2022-09-06T10:20:13.352Z,15.00
2022-09-06T10:22:54.371Z,14.90
2022-09-06T10:25:49.956Z,14.90
2022-09-06T10:28:34.481Z,14.90
2022-09-06T10:31:30.218Z,14.80
2022-09-06T10:34:12.292Z,14.80
2022-09-06T10:36:47.613Z,14.80
2022-09-06T10:39:34.221Z,14.70
2022-09-06T10:42:14.604Z,14.70
2022-09-06T10:45:01.016Z,14.60
2022-09-06T10:47:36.927Z,14.60
2022-09-06T10:50:10.220Z,14.50
2022-09-06T10:52:45.148Z,14.50
2022-09-06T10:55:19.511Z,14.50
2022-09-06T11:00:52.047Z,14.40
2022-09-06T11:06:28.695Z,14.40
2022-09-06T11:09:05.556Z,14.40
2022-09-06T11:11:43.167Z,14.30
2022-09-06T11:14:16.346Z,14.30
2022-09-06T11:16:55.097Z,14.30
2022-09-06T11:19:30.724Z,14.20
2022-09-06T11:22:35.460Z,14.20
2022-09-06T11:25:43.566Z,14.20
2022-09-06T11:28:17.896Z,14.20
2022-09-06T11:30:50.972Z,14.10
2022-09-06T11:33:30.813Z,14.10
2022-09-06T11:36:30.169Z,14.00
2022-09-06T11:39:03.441Z,14.00
2022-09-06T11:41:36.636Z,14.00
2022-09-06T11:44:07.881Z,14.00
2022-09-06T11:47:01.564Z,14.00
2022-09-06T11:49:40.876Z,14.00
2022-09-06T11:52:53.468Z,14.00
2022-09-06T11:55:27.221Z,13.90
2022-09-06T11:58:00.660Z,13.90
2022-09-06T12:00:33.478Z,13.80
2022-09-06T12:06:21.519Z,13.80
2022-09-06T12:08:53.837Z,13.80
2022-09-06T12:11:41.139Z,13.70
2022-09-06T12:14:30.778Z,13.70
2022-09-06T12:17:49.024Z,13.70
2022-09-06T12:20:52.485Z,13.70
2022-09-06T12:23:45.803Z,13.70
2022-09-06T12:26:36.565Z,13.70
2022-09-06T12:29:13.459Z,13.60
2022-09-06T12:31:46.959Z,13.60
2022-09-06T12:34:23.779Z,13.60
2022-09-06T12:37:00.402Z,13.50
2022-09-06T12:39:32.840Z,13.50
2022-09-06T12:42:06.516Z,13.50
2022-09-06T12:44:39.011Z,13.50
2022-09-06T12:47:15.145Z,13.40
2022-09-06T12:49:45.925Z,13.40
2022-09-06T12:52:18.611Z,13.40
2022-09-06T12:54:52.913Z,13.30
2022-09-06T12:57:25.189Z,13.30
2022-09-06T12:59:58.062Z,13.30
2022-09-06T13:02:34.437Z,13.30
2022-09-06T13:05:07.856Z,13.20
2022-09-06T13:07:42.413Z,13.20
2022-09-06T13:10:18.791Z,13.20
2022-09-06T13:12:53.789Z,13.20
2022-09-06T13:15:27.608Z,13.20
2022-09-06T13:18:18.814Z,13.10
2022-09-06T13:20:59.724Z,13.10
2022-09-06T13:23:30.667Z,13.00
2022-09-06T13:26:03.014Z,13.10
2022-09-06T13:28:35.525Z,13.00
2022-09-06T13:31:13.817Z,13.00
2022-09-06T13:33:45.960Z,13.00
2022-09-06T13:36:29.267Z,13.00
2022-09-06T13:39:00.745Z,12.90
2022-09-06T13:41:42.792Z,12.90
2022-09-06T13:44:31.816Z,13.00
2022-09-06T13:47:02.637Z,12.90
2022-09-06T13:49:33.877Z,12.80
2022-09-06T13:52:05.683Z,12.80
2022-09-06T13:54:36.941Z,12.80
2022-09-06T13:57:10.586Z,12.80
2022-09-06T13:59:42.237Z,12.90
2022-09-06T14:02:16.726Z,12.90
2022-09-06T14:04:47.486Z,12.90
2022-09-06T14:07:18.411Z,12.90
2022-09-06T14:09:50.941Z,12.90
2022-09-06T14:12:23.277Z,13.00
2022-09-06T14:14:54.011Z,13.10
2022-09-06T14:17:24.751Z,13.00
2022-09-06T14:19:55.502Z,13.10
2022-09-06T14:22:26.271Z,13.20
2022-09-06T14:24:56.960Z,13.20
2022-09-06T14:27:29.308Z,13.30
2022-09-06T14:30:00.204Z,13.40
2022-09-06T14:32:31.087Z,13.40
2022-09-06T14:35:02.921Z,13.30
2022-09-06T14:37:33.920Z,13.40
2022-09-06T14:40:04.730Z,13.40
2022-09-06T14:42:37.212Z,13.40
2022-09-06T14:45:08.732Z,13.40
2022-09-06T14:47:39.423Z,13.50
2022-09-06T14:50:11.085Z,13.50
2022-09-06T14:52:41.831Z,13.70
2022-09-06T14:55:12.877Z,13.70
2022-09-06T14:57:45.305Z,13.70
2022-09-06T15:00:17.219Z,13.80
2022-09-06T15:02:47.967Z,13.90
2022-09-06T15:05:18.856Z,14.00
2022-09-06T15:07:49.564Z,14.00
2022-09-06T15:10:20.387Z,14.20
2022-09-06T15:12:52.763Z,14.30
2022-09-06T15:15:24.585Z,14.40
2022-09-06T15:17:58.433Z,14.60
2022-09-06T15:20:29.818Z,14.80
2022-09-06T15:23:24.221Z,15.10
2022-09-06T15:25:52.934Z,15.30
2022-09-06T15:28:25.353Z,15.70
2022-09-06T15:30:56.653Z,16.20
2022-09-06T15:33:27.520Z,17.50
2022-09-06T15:35:59.304Z,20.40
2022-09-06T15:38:30.156Z,22.80
2022-09-06T15:41:08.414Z,24.80
2022-09-06T15:43:43.676Z,26.40
2022-09-06T15:46:14.469Z,27.10
2022-09-06T15:48:47.722Z,27.80
2022-09-06T15:51:20.115Z,28.20
2022-09-06T15:53:50.872Z,29.20
2022-09-06T15:56:21.862Z,29.60
2022-09-06T15:58:55.239Z,30.20
2022-09-06T16:01:27.465Z,30.50
2022-09-06T16:04:04.362Z,30.10
2022-09-06T16:06:37.952Z,30.70
2022-09-06T16:09:10.842Z,31.10
2022-09-06T16:11:41.600Z,31.80
2022-09-06T16:14:16.222Z,31.90
2022-09-06T16:16:47.253Z,32.50
2022-09-06T16:19:18.001Z,32.30
2022-09-06T16:21:48.791Z,32.50
2022-09-06T16:24:21.223Z,32.60
2022-09-06T16:26:51.978Z,33.20
2022-09-06T16:29:24.632Z,33.30
2022-09-06T16:32:00.398Z,32.70
2022-09-06T16:34:31.162Z,33.20
2022-09-06T16:37:01.873Z,33.80
2022-09-06T16:39:32.607Z,33.80
2022-09-06T16:42:03.643Z,33.30
2022-09-06T16:44:35.981Z,33.40
2022-09-06T16:47:06.999Z,33.00
2022-09-06T16:49:37.715Z,33.90
2022-09-06T16:52:08.464Z,34.20
2022-09-06T16:54:39.447Z,33.70
2022-09-06T16:57:10.150Z,33.60
2022-09-06T16:59:42.493Z,34.50
2022-09-06T17:02:13.462Z,34.60
2022-09-06T17:04:44.287Z,34.30
2022-09-06T17:07:15.039Z,32.80
2022-09-06T17:09:45.809Z,32.90
2022-09-06T17:12:16.563Z,33.90
2022-09-06T17:14:48.968Z,34.40
2022-09-06T17:17:20.474Z,34.50
2022-09-06T17:19:51.182Z,34.50
2022-09-06T17:22:22.376Z,34.50
2022-09-06T17:24:53.343Z,35.50
2022-09-06T17:27:24.594Z,35.30
2022-09-06T17:29:57.257Z,34.50
2022-09-06T17:32:28.079Z,34.60
2022-09-06T17:34:58.809Z,34.30
2022-09-06T17:37:29.535Z,34.50
2022-09-06T17:40:00.361Z,34.50
2022-09-06T17:42:31.939Z,33.80
2022-09-06T17:45:04.389Z,33.40
2022-09-06T17:47:36.796Z,33.80
2022-09-06T17:50:08.094Z,33.60
2022-09-06T17:52:38.945Z,34.20
2022-09-06T17:55:10.303Z,34.60
2022-09-06T17:57:41.353Z,34.80
2022-09-06T18:00:15.257Z,34.30
2022-09-06T18:02:46.129Z,34.60
2022-09-06T18:05:17.084Z,34.30
2022-09-06T18:07:48.219Z,33.90
2022-09-06T18:10:19.485Z,34.30
2022-09-06T18:12:51.095Z,34.30
2022-09-06T18:15:23.500Z,33.60
2022-09-06T18:17:54.188Z,33.20
2022-09-06T18:20:24.932Z,33.90
2022-09-06T18:22:55.790Z,34.20
2022-09-06T18:25:26.488Z,34.30
2022-09-06T18:27:57.277Z,34.50
2022-09-06T18:30:29.699Z,34.50
2022-09-06T18:33:00.445Z,34.00
2022-09-06T18:35:31.203Z,34.60
2022-09-06T18:38:01.957Z,34.40
2022-09-06T18:40:32.722Z,34.60
2022-09-06T18:43:03.438Z,34.10
2022-09-06T18:45:45.808Z,34.10
2022-09-06T18:48:17.478Z,33.90
2022-09-06T18:50:48.334Z,33.90
2022-09-06T18:53:19.192Z,34.00
2022-09-06T18:55:54.628Z,34.30
2022-09-06T18:58:25.413Z,34.20
2022-09-06T19:01:05.153Z,34.90
2022-09-06T19:03:36.689Z,34.50
2022-09-06T19:06:08.144Z,34.40
2022-09-06T19:08:39.494Z,34.70
2022-09-06T19:11:12.025Z,34.50
2022-09-06T19:13:44.223Z,34.10
2022-09-06T19:16:17.375Z,33.80
2022-09-06T19:18:48.208Z,34.00
2022-09-06T19:21:20.228Z,33.80
2022-09-06T19:23:57.687Z,33.60
2022-09-06T19:26:30.448Z,33.80
2022-09-06T19:29:02.317Z,34.00
2022-09-06T19:31:37.338Z,33.60
2022-09-06T19:34:08.586Z,34.30
2022-09-06T19:36:39.373Z,34.40
2022-09-06T19:39:12.008Z,34.00
2022-09-06T19:41:45.757Z,33.20
2022-09-06T19:44:16.879Z,32.90
2022-09-06T19:46:49.856Z,32.90
2022-09-06T19:49:21.613Z,32.40
2022-09-06T19:51:53.747Z,32.40
2022-09-06T19:54:24.486Z,32.00
2022-09-06T19:56:55.224Z,32.20
2022-09-06T19:59:25.949Z,32.10
2022-09-06T20:01:58.412Z,31.80
2022-09-06T20:04:29.954Z,32.00
2022-09-06T20:07:00.683Z,32.10
2022-09-06T20:09:31.379Z,32.20
2022-09-06T20:12:02.108Z,31.80
2022-09-06T20:14:32.944Z,31.50
2022-09-06T20:17:29.601Z,31.90
2022-09-06T20:19:56.303Z,32.10
2022-09-06T20:22:27.035Z,32.00
2022-09-06T20:24:57.813Z,31.90
2022-09-06T20:27:28.719Z,32.10
2022-09-06T20:29:59.979Z,32.20
2022-09-06T20:32:32.820Z,32.10
2022-09-06T20:35:03.545Z,32.20
2022-09-06T20:37:34.280Z,32.40
2022-09-06T20:40:06.220Z,32.20
2022-09-06T20:42:38.357Z,32.20
2022-09-06T20:45:09.990Z,32.30
2022-09-06T20:47:42.440Z,32.10
2022-09-06T20:50:13.462Z,32.10
2022-09-06T20:52:44.287Z,32.10
2022-09-06T20:55:15.016Z,32.30
2022-09-06T20:57:45.732Z,32.30
2022-09-06T21:00:17.327Z,32.30
2022-09-06T21:02:49.691Z,32.20
2022-09-06T21:05:20.600Z,32.30
2022-09-06T21:07:51.530Z,32.40
2022-09-06T21:10:22.213Z,32.50
2022-09-06T21:12:53.661Z,32.60
2022-09-06T21:15:24.376Z,32.70
2022-09-06T21:17:57.577Z,32.70
2022-09-06T21:20:28.346Z,32.50
2022-09-06T21:22:59.128Z,32.50
2022-09-06T21:25:30.176Z,32.40
2022-09-06T21:28:00.977Z,32.40
2022-09-06T21:30:31.720Z,32.50
2022-09-06T21:33:04.098Z,32.60
2022-09-06T21:35:37.691Z,32.60
2022-09-06T21:38:08.450Z,32.50
2022-09-06T21:40:39.522Z,32.50
2022-09-06T21:43:10.236Z,32.50
2022-09-06T21:45:41.193Z,32.60
2022-09-06T21:48:13.539Z,32.60
2022-09-06T21:50:47.068Z,32.60
2022-09-06T21:53:18.636Z,32.60
2022-09-06T21:55:49.360Z,32.50
2022-09-06T21:58:20.567Z,32.60
2022-09-06T22:00:55.732Z,32.60
2022-09-06T22:03:28.698Z,32.60
2022-09-06T22:05:59.861Z,32.60
2022-09-06T22:08:30.664Z,32.60
2022-09-06T22:11:11.388Z,32.60
2022-09-06T22:13:42.953Z,32.50
2022-09-06T22:16:14.817Z,32.60
2022-09-06T22:18:47.428Z,32.70
2022-09-06T22:21:21.029Z,32.80
2022-09-06T22:23:55.380Z,32.80
2022-09-06T22:26:26.872Z,32.80
2022-09-06T22:28:58.785Z,32.70
2022-09-06T22:31:31.764Z,32.80
2022-09-06T22:34:04.417Z,32.80
2022-09-06T22:36:35.291Z,32.90
2022-09-06T22:39:06.209Z,33.00
2022-09-06T22:41:37.332Z,33.00
2022-09-06T22:44:08.273Z,33.00
2022-09-06T22:46:39.925Z,33.00
2022-09-06T22:49:12.391Z,33.00
2022-09-06T22:51:43.115Z,33.00
2022-09-06T22:54:14.129Z,32.90
2022-09-06T22:56:44.973Z,32.80
2022-09-06T22:59:17.713Z,32.70
2022-09-06T23:01:48.523Z,32.60
2022-09-06T23:04:20.985Z,32.50
2022-09-06T23:06:51.680Z,32.50
2022-09-06T23:09:22.443Z,32.50
2022-09-06T23:11:53.508Z,32.40
2022-09-06T23:14:24.238Z,32.40
2022-09-06T23:16:54.964Z,32.50
2022-09-06T23:19:27.359Z,32.50
2022-09-06T23:21:58.048Z,32.60
2022-09-06T23:24:29.032Z,32.60
2022-09-06T23:26:59.796Z,32.60
2022-09-06T23:29:30.528Z,32.50
2022-09-06T23:32:01.340Z,32.60
2022-09-06T23:34:33.665Z,32.60
2022-09-06T23:37:04.507Z,32.70
2022-09-06T23:39:35.265Z,32.50
2022-09-06T23:42:06.315Z,32.40
2022-09-06T23:44:37.056Z,32.40
2022-09-06T23:47:07.867Z,32.40
2022-09-06T23:49:40.217Z,32.40
2022-09-06T23:52:11.186Z,32.30
2022-09-06T23:54:41.947Z,32.40
2022-09-06T23:57:12.740Z,32.30
2022-09-06T23:59:43.448Z,32.20
